createdAt,value
2023-07-31T00:02:10.235Z,26.37
2023-07-31T00:04:37.313Z,26.38
2023-07-31T00:07:05.651Z,26.41
2023-07-31T00:09:32.872Z,26.41
2023-07-31T00:12:00.187Z,26.33
2023-07-31T00:14:27.403Z,26.27
2023-07-31T00:16:54.566Z,26.24
2023-07-31T00:19:21.639Z,26.21
2023-07-31T00:21:48.783Z,26.24
2023-07-31T00:24:15.785Z,26.23
2023-07-31T00:26:42.867Z,26.19
2023-07-31T00:29:10.145Z,26.17
2023-07-31T00:31:38.059Z,26.16
2023-07-31T00:34:05.203Z,26.19
2023-07-31T00:36:35.215Z,26.20
2023-07-31T00:39:02.433Z,26.21
2023-07-31T00:41:29.662Z,26.20
2023-07-31T00:43:56.780Z,26.15
2023-07-31T00:46:24.008Z,26.12
2023-07-31T00:48:51.078Z,26.11
2023-07-31T00:51:18.987Z,26.11
2023-07-31T00:53:46.653Z,26.05
2023-07-31T00:56:13.997Z,26.00
2023-07-31T00:58:42.049Z,25.99
2023-07-31T01:01:09.358Z,26.03
2023-07-31T01:03:36.459Z,26.05
2023-07-31T01:06:21.728Z,26.03
2023-07-31T01:09:05.940Z,26.04
2023-07-31T01:11:39.691Z,26.03
2023-07-31T01:14:07.146Z,26.00
2023-07-31T01:16:34.351Z,25.99
2023-07-31T01:19:01.455Z,26.00
2023-07-31T01:21:52.272Z,25.99
2023-07-31T01:24:43.234Z,25.98
2023-07-31T01:27:24.769Z,25.98
2023-07-31T01:29:58.937Z,26.01
2023-07-31T01:32:29.592Z,26.02
2023-07-31T01:35:00.674Z,26.01
2023-07-31T01:37:31.362Z,25.98
2023-07-31T01:39:58.511Z,25.96
2023-07-31T01:42:26.175Z,25.95
2023-07-31T01:44:53.408Z,25.95
2023-07-31T01:47:20.658Z,25.92
2023-07-31T01:49:47.852Z,25.93
2023-07-31T01:52:14.965Z,25.97
2023-07-31T01:54:42.850Z,26.07
2023-07-31T01:57:09.888Z,26.00
2023-07-31T01:59:37.127Z,25.95
2023-07-31T02:02:04.836Z,25.94
2023-07-31T02:04:31.978Z,25.90
2023-07-31T02:06:59.129Z,25.89
2023-07-31T02:09:26.208Z,25.88
2023-07-31T02:11:53.370Z,25.79
2023-07-31T02:14:20.426Z,25.71
2023-07-31T02:16:47.743Z,25.70
2023-07-31T02:19:14.897Z,25.61
2023-07-31T02:21:42.830Z,25.58
2023-07-31T02:24:10.100Z,25.52
2023-07-31T02:26:37.833Z,25.50
2023-07-31T02:29:05.244Z,25.52
2023-07-31T02:31:32.392Z,25.52
2023-07-31T02:33:59.559Z,25.49
2023-07-31T02:36:26.859Z,25.57
2023-07-31T02:38:53.883Z,25.62
2023-07-31T02:41:21.084Z,25.55
2023-07-31T02:43:48.276Z,25.55
2023-07-31T02:46:15.600Z,25.57
2023-07-31T02:48:42.929Z,25.58
2023-07-31T02:51:10.040Z,25.62
2023-07-31T02:53:37.194Z,25.63
2023-07-31T02:56:04.513Z,25.62
2023-07-31T02:58:31.645Z,25.64
2023-07-31T03:01:00.322Z,25.63
2023-07-31T03:03:27.738Z,25.64
2023-07-31T03:05:55.095Z,25.68
2023-07-31T03:08:22.420Z,25.69
2023-07-31T03:10:50.470Z,25.66
2023-07-31T03:13:17.578Z,25.62
2023-07-31T03:15:44.904Z,25.60
2023-07-31T03:18:12.208Z,25.56
2023-07-31T03:20:43.826Z,25.54
2023-07-31T03:23:11.345Z,25.54
2023-07-31T03:25:38.804Z,25.52
2023-07-31T03:28:05.991Z,25.60
2023-07-31T03:30:33.341Z,25.60
2023-07-31T03:33:00.479Z,25.59
2023-07-31T03:35:27.781Z,25.59
2023-07-31T03:37:55.734Z,25.60
2023-07-31T03:40:23.846Z,25.60
2023-07-31T03:42:51.091Z,25.65
2023-07-31T03:45:18.152Z,25.66
2023-07-31T03:47:46.540Z,25.65
2023-07-31T03:50:13.854Z,25.71
2023-07-31T03:52:42.219Z,25.75
2023-07-31T03:55:09.558Z,25.75
2023-07-31T03:57:36.735Z,25.75
2023-07-31T04:00:04.884Z,25.75
2023-07-31T04:02:39.348Z,25.77
2023-07-31T04:05:06.800Z,25.81
2023-07-31T04:07:34.051Z,25.81
2023-07-31T04:10:01.511Z,25.86
2023-07-31T04:12:28.680Z,25.88
2023-07-31T04:14:55.799Z,25.94
2023-07-31T04:17:23.245Z,25.98
2023-07-31T04:19:50.305Z,26.03
2023-07-31T04:22:17.356Z,26.06
2023-07-31T04:24:44.519Z,26.13
2023-07-31T04:27:11.743Z,26.19
2023-07-31T04:29:41.122Z,26.25
2023-07-31T04:32:08.396Z,26.27
2023-07-31T04:34:35.562Z,26.31
2023-07-31T04:37:02.624Z,26.35
2023-07-31T04:39:29.763Z,26.39
2023-07-31T04:41:56.793Z,26.44
2023-07-31T04:44:23.980Z,26.50
2023-07-31T04:46:51.088Z,26.55
2023-07-31T04:49:18.372Z,26.62
2023-07-31T04:51:45.599Z,26.67
2023-07-31T04:54:13.914Z,26.73
2023-07-31T04:56:41.246Z,26.79
2023-07-31T04:59:08.763Z,26.86
2023-07-31T05:01:35.853Z,26.98
2023-07-31T05:04:03.571Z,27.06
2023-07-31T05:06:30.673Z,27.18
2023-07-31T05:08:57.903Z,27.28
2023-07-31T05:11:25.126Z,27.45
2023-07-31T05:13:52.225Z,27.74
2023-07-31T05:16:19.525Z,28.16
2023-07-31T05:18:46.652Z,28.66
2023-07-31T05:21:13.818Z,29.00
2023-07-31T05:23:40.854Z,29.08
2023-07-31T05:26:09.272Z,29.04
2023-07-31T05:28:37.488Z,28.93
2023-07-31T05:31:05.761Z,28.90
2023-07-31T05:33:32.850Z,28.93
2023-07-31T05:35:59.980Z,29.20
2023-07-31T05:38:27.412Z,29.78
2023-07-31T05:40:54.568Z,30.76
2023-07-31T05:43:21.626Z,32.18
2023-07-31T05:45:48.918Z,33.55
2023-07-31T05:48:16.073Z,34.57
2023-07-31T05:50:44.885Z,35.09
2023-07-31T05:53:12.169Z,35.68
2023-07-31T05:55:39.348Z,35.82
2023-07-31T05:58:06.521Z,36.39
2023-07-31T06:00:33.818Z,36.81
2023-07-31T06:03:01.033Z,37.28
2023-07-31T06:05:29.986Z,37.61
2023-07-31T06:07:58.132Z,37.82
2023-07-31T06:10:25.294Z,37.59
2023-07-31T06:12:52.570Z,37.90
2023-07-31T06:15:20.656Z,37.89
2023-07-31T06:17:47.952Z,37.68
2023-07-31T06:20:15.137Z,38.07
2023-07-31T06:22:42.348Z,38.20
2023-07-31T06:25:10.906Z,38.31
2023-07-31T06:27:39.762Z,38.00
2023-07-31T06:30:08.122Z,38.00
2023-07-31T06:32:35.539Z,38.29
2023-07-31T06:35:02.658Z,38.86
2023-07-31T06:37:29.894Z,39.27
2023-07-31T06:39:56.985Z,38.46
2023-07-31T06:42:24.138Z,38.83
2023-07-31T06:44:51.465Z,38.27
2023-07-31T06:47:18.544Z,37.17
2023-07-31T06:49:45.777Z,36.19
2023-07-31T06:52:12.934Z,35.32
2023-07-31T06:54:40.106Z,35.96
2023-07-31T06:57:07.465Z,36.10
2023-07-31T06:59:34.620Z,36.05
2023-07-31T07:02:02.307Z,35.98
2023-07-31T07:04:31.394Z,36.25
2023-07-31T07:06:58.589Z,35.50
2023-07-31T07:09:25.700Z,35.93
2023-07-31T07:11:52.785Z,36.22
2023-07-31T07:18:00.802Z,34.93
2023-07-31T07:20:28.189Z,34.95
2023-07-31T07:22:55.222Z,35.53
2023-07-31T07:25:22.785Z,35.77
2023-07-31T07:27:49.843Z,35.36
2023-07-31T07:30:17.156Z,35.40
2023-07-31T07:32:44.878Z,35.35
2023-07-31T07:35:12.455Z,35.17
2023-07-31T07:37:39.533Z,34.97
2023-07-31T07:40:07.509Z,34.62
2023-07-31T07:42:34.491Z,34.58
2023-07-31T07:45:01.629Z,34.62
2023-07-31T07:47:29.480Z,33.92
2023-07-31T07:49:56.754Z,33.85
2023-07-31T07:52:23.885Z,34.06
2023-07-31T07:54:51.251Z,34.04
2023-07-31T07:57:18.479Z,33.55
2023-07-31T07:59:45.633Z,33.08
2023-07-31T08:02:12.803Z,33.20
2023-07-31T08:04:39.965Z,33.75
2023-07-31T08:07:07.225Z,34.04
2023-07-31T08:09:34.318Z,34.20
2023-07-31T08:12:04.580Z,34.12
2023-07-31T08:14:33.465Z,33.97
2023-07-31T08:17:01.379Z,33.88
2023-07-31T08:19:28.714Z,33.71
2023-07-31T08:21:58.173Z,33.83
2023-07-31T08:24:25.783Z,33.86
2023-07-31T08:26:53.006Z,34.13
2023-07-31T08:29:20.280Z,34.19
2023-07-31T08:31:47.447Z,34.20
2023-07-31T08:34:14.564Z,34.31
2023-07-31T08:36:41.928Z,34.23
2023-07-31T08:39:09.295Z,34.45
2023-07-31T08:41:42.921Z,34.16
2023-07-31T08:44:13.119Z,33.63
2023-07-31T08:46:41.587Z,33.64
2023-07-31T08:49:10.669Z,33.71
2023-07-31T08:51:38.261Z,33.52
2023-07-31T08:54:05.497Z,33.46
2023-07-31T08:56:33.830Z,33.31
2023-07-31T08:59:05.870Z,33.00
2023-07-31T09:01:39.763Z,32.79
2023-07-31T09:04:09.285Z,32.64
2023-07-31T09:06:37.079Z,32.85
2023-07-31T09:09:04.547Z,32.92
2023-07-31T09:11:31.597Z,32.73
2023-07-31T09:13:59.571Z,32.72
2023-07-31T09:16:33.429Z,32.25
2023-07-31T09:19:03.174Z,31.79
2023-07-31T09:21:31.131Z,31.72
2023-07-31T09:23:58.815Z,31.60
2023-07-31T09:26:38.464Z,30.76
2023-07-31T09:29:09.659Z,29.81
2023-07-31T09:31:45.002Z,29.53
2023-07-31T09:34:13.041Z,29.56
2023-07-31T09:36:51.634Z,29.38
2023-07-31T09:39:21.203Z,29.23
2023-07-31T09:41:54.933Z,29.36
2023-07-31T09:44:22.713Z,29.36
2023-07-31T09:46:50.975Z,29.53
2023-07-31T09:49:18.239Z,29.67
2023-07-31T09:51:45.322Z,29.71
2023-07-31T09:54:13.909Z,29.56
2023-07-31T09:56:47.232Z,29.26
2023-07-31T09:59:22.028Z,29.37
2023-07-31T10:01:52.039Z,29.65
2023-07-31T10:04:22.225Z,29.63
2023-07-31T10:06:52.666Z,29.56
2023-07-31T10:09:22.819Z,29.41
2023-07-31T10:11:57.487Z,29.02
2023-07-31T10:14:25.664Z,28.70
2023-07-31T10:16:54.154Z,28.91
2023-07-31T10:19:22.320Z,29.42
2023-07-31T10:21:50.557Z,29.60
2023-07-31T10:24:18.286Z,29.48
2023-07-31T10:26:48.384Z,29.17
2023-07-31T10:29:18.954Z,29.36
2023-07-31T10:31:47.999Z,29.71
2023-07-31T10:34:16.181Z,30.00
2023-07-31T10:36:43.586Z,30.21
2023-07-31T10:39:41.994Z,30.31
2023-07-31T10:42:15.560Z,30.34
2023-07-31T10:44:48.177Z,30.79
2023-07-31T10:47:19.196Z,31.06
2023-07-31T10:49:48.005Z,31.51
2023-07-31T10:52:20.406Z,31.76
2023-07-31T10:54:47.769Z,31.79
2023-07-31T10:57:22.678Z,32.09
2023-07-31T10:59:51.931Z,32.35
2023-07-31T11:02:28.058Z,32.30
2023-07-31T11:05:23.495Z,32.43
2023-07-31T11:07:51.002Z,32.69
2023-07-31T11:10:19.449Z,32.85
2023-07-31T11:12:48.047Z,32.84
2023-07-31T11:15:15.387Z,32.88
2023-07-31T11:17:42.957Z,32.89
2023-07-31T11:20:10.697Z,32.87
2023-07-31T11:22:37.892Z,33.20
2023-07-31T11:25:05.554Z,33.21
2023-07-31T11:27:39.846Z,33.38
2023-07-31T11:30:08.563Z,33.18
2023-07-31T11:32:38.274Z,32.70
2023-07-31T11:35:07.217Z,33.05
2023-07-31T11:37:44.250Z,33.20
2023-07-31T11:40:12.245Z,32.74
2023-07-31T11:42:39.715Z,32.69
2023-07-31T11:45:08.704Z,33.00
2023-07-31T11:47:37.920Z,33.33
2023-07-31T11:50:07.453Z,33.54
2023-07-31T11:52:44.601Z,33.60
2023-07-31T11:55:12.352Z,33.25
2023-07-31T11:57:44.049Z,33.10
2023-07-31T12:00:14.476Z,32.98
2023-07-31T12:02:42.566Z,32.95
2023-07-31T12:07:59.492Z,33.34
2023-07-31T12:10:34.002Z,33.37
2023-07-31T12:13:22.109Z,33.32
2023-07-31T12:15:50.030Z,33.25
2023-07-31T12:18:21.251Z,33.46
2023-07-31T12:20:50.730Z,33.52
2023-07-31T12:23:32.230Z,33.39
2023-07-31T12:26:13.115Z,33.43
2023-07-31T12:28:48.589Z,33.60
2023-07-31T12:31:24.081Z,33.66
2023-07-31T12:33:54.328Z,33.78
2023-07-31T12:36:24.735Z,33.79
2023-07-31T12:38:54.839Z,33.65
2023-07-31T12:41:22.249Z,33.45
2023-07-31T12:43:49.321Z,33.41
2023-07-31T12:46:17.425Z,33.00
2023-07-31T12:48:44.594Z,32.40
2023-07-31T12:51:11.814Z,31.94
2023-07-31T12:53:39.016Z,31.74
2023-07-31T12:56:06.312Z,30.95
2023-07-31T12:58:33.519Z,30.59
2023-07-31T13:01:00.891Z,30.38
2023-07-31T13:03:28.254Z,30.21
2023-07-31T13:05:56.061Z,30.23
2023-07-31T13:08:23.199Z,30.25
2023-07-31T13:10:50.435Z,30.26
2023-07-31T13:13:17.668Z,30.26
2023-07-31T13:15:46.760Z,30.22
2023-07-31T13:18:14.020Z,30.23
2023-07-31T13:20:41.140Z,30.32
2023-07-31T13:23:08.366Z,30.41
2023-07-31T13:25:35.705Z,30.50
2023-07-31T13:28:03.912Z,30.50
2023-07-31T13:30:31.437Z,30.52
2023-07-31T13:32:58.644Z,30.69
2023-07-31T13:35:25.931Z,30.86
2023-07-31T13:37:53.252Z,31.04
2023-07-31T13:40:20.349Z,31.20
2023-07-31T13:42:49.060Z,31.31
2023-07-31T13:45:16.345Z,31.34
2023-07-31T13:47:43.779Z,31.05
2023-07-31T13:50:11.096Z,31.04
2023-07-31T13:52:38.155Z,31.12
2023-07-31T13:55:05.773Z,30.88
2023-07-31T13:57:32.972Z,30.87
2023-07-31T14:00:00.102Z,30.88
2023-07-31T14:02:27.447Z,30.80
2023-07-31T14:04:54.585Z,30.90
2023-07-31T14:07:21.942Z,31.20
2023-07-31T14:09:49.029Z,31.27
2023-07-31T14:12:31.797Z,31.49
2023-07-31T14:15:04.342Z,31.73
2023-07-31T14:17:31.688Z,31.89
2023-07-31T14:19:59.426Z,31.96
2023-07-31T14:22:34.774Z,32.11
2023-07-31T14:25:02.833Z,32.33
2023-07-31T14:27:30.227Z,32.51
2023-07-31T14:29:57.609Z,32.58
2023-07-31T14:32:32.874Z,32.68
2023-07-31T14:35:00.534Z,32.77
2023-07-31T14:37:28.848Z,32.66
2023-07-31T14:39:57.409Z,32.72
2023-07-31T14:42:24.737Z,32.79
2023-07-31T14:44:51.863Z,32.91
2023-07-31T14:47:19.176Z,32.82
2023-07-31T14:49:46.206Z,32.81
2023-07-31T14:52:13.477Z,32.64
2023-07-31T14:54:40.538Z,32.60
2023-07-31T14:57:07.836Z,32.43
2023-07-31T14:59:35.077Z,32.52
2023-07-31T15:02:02.710Z,32.35
2023-07-31T15:04:30.271Z,32.28
2023-07-31T15:06:57.342Z,32.33
2023-07-31T15:09:24.588Z,32.34
2023-07-31T15:11:51.798Z,32.33
2023-07-31T15:14:19.170Z,32.51
2023-07-31T15:16:49.045Z,32.55
2023-07-31T15:19:17.070Z,32.70
2023-07-31T15:21:44.466Z,32.61
2023-07-31T15:24:11.622Z,32.62
2023-07-31T15:26:39.289Z,32.73
2023-07-31T15:29:12.631Z,32.61
2023-07-31T15:31:40.602Z,32.61
2023-07-31T15:34:08.125Z,32.65
2023-07-31T15:36:35.596Z,32.70
2023-07-31T15:39:02.968Z,32.72
2023-07-31T15:41:30.941Z,32.73
2023-07-31T15:43:58.144Z,32.68
2023-07-31T15:46:25.362Z,32.62
2023-07-31T15:48:54.704Z,32.62
2023-07-31T15:51:22.231Z,32.42
2023-07-31T15:53:49.255Z,32.36
2023-07-31T15:56:17.194Z,32.20
2023-07-31T15:58:44.314Z,32.13
2023-07-31T16:01:11.704Z,32.04
2023-07-31T16:03:38.908Z,31.99
2023-07-31T16:06:06.406Z,32.02
2023-07-31T16:08:33.852Z,31.97
2023-07-31T16:11:02.717Z,31.98
2023-07-31T16:13:29.810Z,31.91
2023-07-31T16:15:57.335Z,31.73
2023-07-31T16:18:24.624Z,31.70
2023-07-31T16:20:52.422Z,31.57
2023-07-31T16:23:19.468Z,31.44
2023-07-31T16:25:46.642Z,31.37
2023-07-31T16:28:13.768Z,31.29
2023-07-31T16:30:41.093Z,31.26
2023-07-31T16:33:08.472Z,31.27
2023-07-31T16:35:35.673Z,31.17
2023-07-31T16:38:02.763Z,31.08
2023-07-31T16:40:30.702Z,31.04
2023-07-31T16:42:57.706Z,31.02
2023-07-31T16:45:24.828Z,30.92
2023-07-31T16:47:52.422Z,30.90
2023-07-31T16:50:21.050Z,30.84
2023-07-31T16:52:49.178Z,30.78
2023-07-31T16:55:16.213Z,30.75
2023-07-31T16:57:43.363Z,30.63
2023-07-31T17:00:11.214Z,30.60
2023-07-31T17:02:38.359Z,30.58
2023-07-31T17:05:07.423Z,30.49
2023-07-31T17:07:34.973Z,30.41
2023-07-31T17:10:03.151Z,30.33
2023-07-31T17:12:30.371Z,30.22
2023-07-31T17:14:57.652Z,30.14
2023-07-31T17:17:26.014Z,29.95
2023-07-31T17:19:53.292Z,29.77
2023-07-31T17:22:21.015Z,29.43
2023-07-31T17:24:49.012Z,29.18
2023-07-31T17:27:16.126Z,29.05
2023-07-31T17:29:43.404Z,28.91
2023-07-31T17:32:10.477Z,28.75
2023-07-31T17:34:38.252Z,28.61
2023-07-31T17:37:05.517Z,28.55
2023-07-31T17:39:32.575Z,28.46
2023-07-31T17:41:59.722Z,28.38
2023-07-31T17:44:26.866Z,28.32
2023-07-31T17:46:54.458Z,28.25
2023-07-31T17:49:21.619Z,28.22
2023-07-31T17:51:48.687Z,28.17
2023-07-31T17:54:15.738Z,28.20
2023-07-31T17:56:42.932Z,28.15
2023-07-31T17:59:11.787Z,28.17
2023-07-31T18:01:39.401Z,28.17
2023-07-31T18:04:07.278Z,28.15
2023-07-31T18:06:35.983Z,28.14
2023-07-31T18:09:04.388Z,28.13
2023-07-31T18:11:32.935Z,28.04
2023-07-31T18:14:00.795Z,28.08
2023-07-31T18:16:27.902Z,28.09
2023-07-31T18:18:55.118Z,28.13
2023-07-31T18:21:22.432Z,28.08
2023-07-31T18:23:49.472Z,28.09
2023-07-31T18:26:16.716Z,28.07
2023-07-31T18:28:43.815Z,28.04
2023-07-31T18:31:11.248Z,28.01
2023-07-31T18:33:39.473Z,28.02
2023-07-31T18:36:06.986Z,28.07
2023-07-31T18:38:34.360Z,28.12
2023-07-31T18:41:06.077Z,28.17
2023-07-31T18:43:33.516Z,28.27
2023-07-31T18:46:00.672Z,28.33
2023-07-31T18:48:28.076Z,28.33
2023-07-31T18:50:55.265Z,28.33
2023-07-31T18:53:22.582Z,28.26
2023-07-31T18:55:50.140Z,28.23
2023-07-31T18:58:18.584Z,28.19
2023-07-31T19:00:45.723Z,28.17
2023-07-31T19:03:13.280Z,28.17
2023-07-31T19:05:40.823Z,28.16
2023-07-31T19:08:08.253Z,28.14
2023-07-31T19:10:36.506Z,28.14
2023-07-31T19:13:06.522Z,28.16
2023-07-31T19:15:35.073Z,28.14
2023-07-31T19:18:03.180Z,28.09
2023-07-31T19:20:31.875Z,28.08
2023-07-31T19:22:59.856Z,28.06
2023-07-31T19:25:27.190Z,28.01
2023-07-31T19:27:57.659Z,27.99
2023-07-31T19:30:25.990Z,27.93
2023-07-31T19:32:54.066Z,27.91
2023-07-31T19:35:23.424Z,27.89
2023-07-31T19:37:50.834Z,27.88
2023-07-31T19:40:20.505Z,27.85
2023-07-31T19:42:47.743Z,27.84
2023-07-31T19:45:14.867Z,27.85
2023-07-31T19:47:42.109Z,27.80
2023-07-31T19:50:09.453Z,27.77
2023-07-31T19:52:36.531Z,27.76
2023-07-31T19:55:03.806Z,27.71
2023-07-31T19:57:30.877Z,27.70
2023-07-31T19:59:57.920Z,27.76
2023-07-31T20:02:26.995Z,27.81
2023-07-31T20:04:54.328Z,27.80
2023-07-31T20:07:21.527Z,27.80
2023-07-31T20:09:49.260Z,27.78
2023-07-31T20:12:16.256Z,27.82
2023-07-31T20:14:43.264Z,27.83
2023-07-31T20:17:10.409Z,27.83
2023-07-31T20:19:37.716Z,27.85
2023-07-31T20:22:05.171Z,27.85
2023-07-31T20:24:32.197Z,27.74
2023-07-31T20:26:59.301Z,27.67
2023-07-31T20:29:26.284Z,27.64
2023-07-31T20:31:53.476Z,27.60
2023-07-31T20:34:20.697Z,27.59
2023-07-31T20:36:47.958Z,27.59
2023-07-31T20:39:14.912Z,27.62
2023-07-31T20:41:43.680Z,27.64
2023-07-31T20:44:10.658Z,27.63
2023-07-31T20:46:37.859Z,27.59
2023-07-31T20:49:05.304Z,27.59
2023-07-31T20:51:33.664Z,27.57
2023-07-31T20:54:00.842Z,27.57
2023-07-31T20:56:27.848Z,27.58
2023-07-31T20:58:54.942Z,27.57
2023-07-31T21:01:22.174Z,27.60
2023-07-31T21:03:49.386Z,27.62
2023-07-31T21:06:18.093Z,27.64
2023-07-31T21:08:47.740Z,27.70
2023-07-31T21:11:14.936Z,27.74
2023-07-31T21:13:43.766Z,27.77
2023-07-31T21:16:10.774Z,27.76
2023-07-31T21:18:37.852Z,27.75
2023-07-31T21:21:04.942Z,27.77
2023-07-31T21:23:32.982Z,27.75
2023-07-31T21:26:00.167Z,27.76
2023-07-31T21:28:27.395Z,27.74
2023-07-31T21:30:54.719Z,27.75
2023-07-31T21:33:21.902Z,27.72
2023-07-31T21:35:48.959Z,27.73
2023-07-31T21:38:17.146Z,27.66
2023-07-31T21:40:44.200Z,27.60
2023-07-31T21:43:11.225Z,27.49
2023-07-31T21:45:38.400Z,27.45
2023-07-31T21:48:05.699Z,27.43
2023-07-31T21:50:33.088Z,27.44
2023-07-31T21:53:00.218Z,27.46
2023-07-31T21:55:29.598Z,27.48
2023-07-31T21:57:56.879Z,27.49
2023-07-31T22:00:23.861Z,27.46
2023-07-31T22:02:51.082Z,27.45
2023-07-31T22:05:18.186Z,27.44
2023-07-31T22:07:45.431Z,27.45
2023-07-31T22:10:12.506Z,27.43
2023-07-31T22:12:39.718Z,27.37
2023-07-31T22:15:07.252Z,27.30
2023-07-31T22:17:34.595Z,27.26
2023-07-31T22:20:01.717Z,27.23
2023-07-31T22:22:28.809Z,27.25
2023-07-31T22:24:55.761Z,27.19
2023-07-31T22:27:22.931Z,27.12
2023-07-31T22:29:49.926Z,27.12
2023-07-31T22:32:17.105Z,27.11
2023-07-31T22:34:44.105Z,27.13
2023-07-31T22:37:11.187Z,27.11
2023-07-31T22:39:38.292Z,27.09
2023-07-31T22:42:05.453Z,27.06
2023-07-31T22:44:32.660Z,27.08
2023-07-31T22:46:59.687Z,27.08
2023-07-31T22:49:26.710Z,27.07
2023-07-31T22:51:53.702Z,27.06
2023-07-31T22:54:21.001Z,27.11
2023-07-31T22:56:48.020Z,27.16
2023-07-31T22:59:15.274Z,27.16
2023-07-31T23:01:42.366Z,27.12
2023-07-31T23:04:09.474Z,27.07
2023-07-31T23:06:36.538Z,27.02
2023-07-31T23:09:03.934Z,27.00
2023-07-31T23:11:31.205Z,26.97
2023-07-31T23:13:58.233Z,26.94
2023-07-31T23:16:25.384Z,26.90
2023-07-31T23:18:52.538Z,26.94
2023-07-31T23:21:19.538Z,26.99
2023-07-31T23:23:46.634Z,27.01
2023-07-31T23:26:13.655Z,26.97
2023-07-31T23:28:40.899Z,26.94
2023-07-31T23:31:08.178Z,26.92
2023-07-31T23:33:35.411Z,26.87
2023-07-31T23:36:12.736Z,26.86
2023-07-31T23:38:40.928Z,26.84
2023-07-31T23:41:08.198Z,26.83
2023-07-31T23:43:35.281Z,26.88
2023-07-31T23:46:02.489Z,26.89
2023-07-31T23:48:29.574Z,26.90
2023-07-31T23:50:57.176Z,26.88
2023-07-31T23:53:24.870Z,26.86
2023-07-31T23:55:52.066Z,26.83
2023-07-31T23:58:19.321Z,26.83
